Time;durP1;ratioP1;P1;durP2;ratioP2;P2;SDS_P1;SDS_P2;PMS_P1;PMS_P2;Temp;Humidity;BMP_temperature;BMP_pressure;BME280_temperature;BME280_humidity;BME280_pressure;Samples;Min_cycle;Max_cycle;Signal;HPM_P1;HPM_P2
2022/09/19 00:01:33;;;;;;;11.43;1.92;;;11.60;99.90;;;;;;4901984;29;20027;-89
2022/09/19 00:04:01;;;;;;;29.20;2.60;;;11.60;99.90;;;;;;4885164;29;20100;-88
2022/09/19 00:06:28;;;;;;;18.00;1.98;;;11.60;99.90;;;;;;4901211;29;20028;-88
2022/09/19 00:08:56;;;;;;;17.25;2.88;;;11.50;99.90;;;;;;4902806;29;20474;-89
2022/09/19 00:11:22;;;;;;;14.40;2.90;;;11.60;99.90;;;;;;4885143;29;20136;-88
2022/09/19 00:13:53;;;;;;;11.80;2.08;;;11.60;99.90;;;;;;4886305;29;20116;-89
2022/09/19 00:16:26;;;;;;;14.93;2.40;;;11.60;99.90;;;;;;4893599;29;20040;-89
2022/09/19 00:18:54;;;;;;;11.07;1.77;;;11.60;99.90;;;;;;4900494;29;20020;-90
2022/09/19 00:21:21;;;;;;;14.57;2.53;;;11.60;99.90;;;;;;4901366;29;20033;-90
2022/09/19 00:26:33;;;;;;;16.73;3.10;;;11.60;99.90;;;;;;4907054;29;20068;-89
2022/09/19 00:28:59;;;;;;;12.10;1.95;;;11.60;99.90;;;;;;4891566;29;20381;-89
2022/09/19 00:31:25;;;;;;;13.90;2.58;;;11.60;99.90;;;;;;4893218;29;20460;-88
2022/09/19 00:33:50;;;;;;;14.60;2.05;;;11.60;99.90;;;;;;4885513;29;20044;-89
2022/09/19 00:36:19;;;;;;;12.20;2.03;;;11.50;99.90;;;;;;4885016;29;20024;-89
2022/09/19 00:38:45;;;;;;;17.85;2.70;;;11.60;99.90;;;;;;4884210;29;20131;-89
2022/09/19 00:41:17;;;;;;;11.43;2.28;;;11.50;99.90;;;;;;4884479;29;20063;-89
2022/09/19 00:43:51;;;;;;;13.27;2.85;;;11.60;99.90;;;;;;4899976;29;20473;-89
2022/09/19 00:46:19;;;;;;;14.40;2.53;;;11.50;99.90;;;;;;4900138;29;20029;-89
2022/09/19 00:48:47;;;;;;;18.73;2.95;;;11.50;99.90;;;;;;4901178;29;20055;-90
2022/09/19 00:51:31;;;;;;;14.30;2.10;;;11.50;99.90;;;;;;4900600;29;20040;-89
2022/09/19 00:54:00;;;;;;;10.48;1.80;;;11.50;99.90;;;;;;4899937;29;20029;-89
2022/09/19 00:56:29;;;;;;;17.00;2.22;;;11.50;99.90;;;;;;4900878;29;20063;-90
2022/09/19 00:58:56;;;;;;;14.00;1.90;;;11.50;99.90;;;;;;4883824;29;20512;-89
2022/09/19 01:01:23;;;;;;;14.82;2.42;;;11.50;99.90;;;;;;4900803;29;20029;-89
2022/09/19 01:03:48;;;;;;;12.07;1.92;;;11.50;99.90;;;;;;4868341;29;20465;-89
2022/09/19 01:06:43;;;;;;;14.82;2.38;;;11.50;99.90;;;;;;4883676;29;20035;-89
2022/09/19 01:09:36;;;;;;;12.80;2.05;;;11.50;99.90;;;;;;4900114;29;20056;-89
2022/09/19 01:12:15;;;;;;;10.32;1.85;;;11.50;99.90;;;;;;4900206;29;20080;-89
2022/09/19 01:15:09;;;;;;;15.30;2.30;;;11.50;99.90;;;;;;4883584;29;20021;-88
2022/09/19 01:17:45;;;;;;;8.57;1.80;;;11.50;99.90;;;;;;4883888;29;20489;-90
2022/09/19 01:20:30;;;;;;;16.90;2.20;;;11.50;99.90;;;;;;4901100;29;20067;-89
2022/09/19 01:23:15;;;;;;;11.60;1.92;;;11.50;99.90;;;;;;4899479;29;20032;-89
2022/09/19 01:25:50;;;;;;;14.02;1.90;;;11.50;99.90;;;;;;4900058;29;20020;-87
2022/09/19 01:28:25;;;;;;;13.38;2.10;;;11.50;99.90;;;;;;4883234;29;20470;-89
2022/09/19 01:33:46;;;;;;;10.50;2.33;;;11.60;99.90;;;;;;4900402;29;20096;-90
2022/09/19 01:36:15;;;;;;;16.92;1.95;;;11.60;99.90;;;;;;4883631;29;20119;-89
2022/09/19 01:38:45;;;;;;;12.55;2.38;;;11.60;99.90;;;;;;4885943;29;20083;-89
2022/09/19 01:41:12;;;;;;;11.98;2.25;;;11.60;99.90;;;;;;4901825;29;20036;-90
2022/09/19 01:43:38;;;;;;;14.70;2.08;;;11.60;99.90;;;;;;4901979;29;20047;-89
2022/09/19 01:46:36;;;;;;;15.77;2.42;;;11.60;99.90;;;;;;4901088;29;20024;-89
2022/09/19 01:49:34;;;;;;;7.57;1.70;;;11.60;99.90;;;;;;4910255;29;20083;-89
2022/09/19 01:52:18;;;;;;;13.55;2.20;;;11.60;99.90;;;;;;4891505;29;20092;-88
2022/09/19 01:55:19;;;;;;;14.68;2.22;;;11.60;99.90;;;;;;4918833;29;20035;-90
2022/09/19 01:58:24;;;;;;;15.85;2.17;;;11.60;99.90;;;;;;4885915;29;20480;-89
2022/09/19 02:01:07;;;;;;;14.18;2.13;;;11.60;99.90;;;;;;4900601;29;20060;-89
2022/09/19 02:03:55;;;;;;;12.75;2.00;;;11.60;99.90;;;;;;4918499;29;20035;-89
2022/09/19 02:06:42;;;;;;;14.18;2.05;;;11.60;99.90;;;;;;4918180;29;20024;-90
2022/09/19 02:09:10;;;;;;;10.43;1.70;;;11.60;99.90;;;;;;4901160;29;20461;-88
2022/09/19 02:11:36;;;;;;;13.10;2.20;;;11.60;99.90;;;;;;4901399;29;20028;-89
2022/09/19 02:14:16;;;;;;;16.90;2.00;;;11.60;99.90;;;;;;4901291;29;20496;-90
2022/09/19 02:16:51;;;;;;;9.38;2.10;;;11.60;99.90;;;;;;4901546;29;20119;-88
2022/09/19 02:19:43;;;;;;;12.18;2.10;;;11.60;99.90;;;;;;4901387;29;20100;-89
2022/09/19 02:22:20;;;;;;;11.70;1.77;;;11.50;99.90;;;;;;4901167;29;20354;-88
2022/09/19 02:24:47;;;;;;;18.05;2.30;;;11.60;99.90;;;;;;4916844;29;20123;-89
2022/09/19 02:27:22;;;;;;;11.73;1.98;;;11.60;99.90;;;;;;4901293;29;20043;-89
2022/09/19 02:29:58;;;;;;;18.95;3.40;;;11.50;99.90;;;;;;4917908;29;20046;-89
2022/09/19 02:32:27;;;;;;;14.55;1.98;;;11.50;99.90;;;;;;4901088;29;20031;-90
2022/09/19 02:34:55;;;;;;;9.50;1.75;;;11.50;99.90;;;;;;4917896;29;20056;-90
2022/09/19 02:37:39;;;;;;;13.40;2.55;;;11.50;99.90;;;;;;4901109;29;20388;-89
2022/09/19 02:40:39;;;;;;;16.30;2.15;;;11.50;99.90;;;;;;4887383;29;20056;-89
2022/09/19 02:43:31;;;;;;;10.48;2.13;;;11.50;99.90;;;;;;4891574;29;20056;-89
2022/09/19 02:46:31;;;;;;;10.18;2.97;;;11.50;99.90;;;;;;4897867;29;20032;-89
2022/09/19 02:49:36;;;;;;;13.68;1.92;;;11.50;99.90;;;;;;4873810;29;20029;-89
2022/09/19 02:52:07;;;;;;;15.18;2.20;;;11.50;99.90;;;;;;4874670;29;20538;-89
2022/09/19 02:54:35;;;;;;;;;;;11.50;99.90;;;;;;4898774;29;20362;-89
2022/09/19 02:57:06;;;;;;;16.92;1.90;;;11.50;99.90;;;;;;4882142;29;19914;-88
2022/09/19 02:59:37;;;;;;;13.45;1.65;;;11.50;99.90;;;;;;4886075;29;20504;-89
2022/09/19 03:02:27;;;;;;;9.80;1.60;;;11.50;99.90;;;;;;4886016;29;20466;-89
2022/09/19 03:05:01;;;;;;;11.95;1.88;;;11.50;99.90;;;;;;4886257;29;20039;-89
2022/09/19 03:07:32;;;;;;;11.90;1.98;;;11.50;99.90;;;;;;4885917;29;20056;-88
2022/09/19 03:10:07;;;;;;;;;;;11.50;99.90;;;;;;4886122;29;20032;-89
2022/09/19 03:12:51;;;;;;;18.08;2.45;;;11.50;99.90;;;;;;4901093;29;19911;-89
2022/09/19 03:15:42;;;;;;;12.15;1.80;;;11.50;99.90;;;;;;4902547;29;20023;-89
2022/09/19 03:18:13;;;;;;;11.20;1.75;;;11.50;99.90;;;;;;4878263;29;20127;-89
2022/09/19 03:20:39;;;;;;;11.85;2.10;;;11.50;99.90;;;;;;4885410;29;20036;-89
2022/09/19 03:23:06;;;;;;;12.77;1.92;;;11.50;99.90;;;;;;4901596;29;20059;-89
2022/09/19 03:25:32;;;;;;;13.45;1.92;;;11.50;99.90;;;;;;4885742;29;20020;-89
2022/09/19 03:27:57;;;;;;;13.95;2.03;;;11.50;99.90;;;;;;4902260;29;20080;-89
2022/09/19 03:30:24;;;;;;;9.45;1.85;;;11.60;99.90;;;;;;4870294;29;20039;-89
2022/09/19 03:32:49;;;;;;;11.02;1.70;;;11.50;99.90;;;;;;4871001;29;20032;-89
2022/09/19 03:35:16;;;;;;;16.35;3.25;;;11.60;99.90;;;;;;4887235;29;20037;-89
2022/09/19 03:37:42;;;;;;;10.75;1.92;;;11.60;99.90;;;;;;4888964;29;20032;-88
2022/09/19 03:40:08;;;;;;;14.40;1.77;;;11.60;99.90;;;;;;4903712;29;20053;-89
2022/09/19 03:42:34;;;;;;;12.40;1.88;;;11.60;99.90;;;;;;4885574;29;20037;-89
2022/09/19 03:45:01;;;;;;;15.95;2.08;;;11.60;99.90;;;;;;4885684;29;20031;-88
2022/09/19 03:47:27;;;;;;;21.88;2.90;;;11.60;99.90;;;;;;4901878;29;20021;-89
2022/09/19 03:49:53;;;;;;;9.77;1.95;;;11.60;99.90;;;;;;4869288;29;20039;-89
2022/09/19 03:52:21;;;;;;;9.63;1.80;;;11.60;99.90;;;;;;4900468;29;20120;-89
2022/09/19 03:54:47;;;;;;;19.75;2.20;;;11.60;99.90;;;;;;4869979;29;20029;-89
2022/09/19 03:57:14;;;;;;;12.70;1.95;;;11.60;99.90;;;;;;4885341;29;20045;-89
2022/09/19 03:59:41;;;;;;;13.13;2.40;;;11.60;99.90;;;;;;4901871;29;20036;-89
2022/09/19 04:02:08;;;;;;;10.32;2.72;;;11.60;99.90;;;;;;4885893;29;20021;-89
2022/09/19 04:04:34;;;;;;;12.68;2.00;;;11.60;99.90;;;;;;4885750;29;20032;-89
2022/09/19 04:07:01;;;;;;;10.95;2.25;;;11.60;99.90;;;;;;4869879;29;20152;-89
2022/09/19 04:09:27;;;;;;;17.60;2.38;;;11.60;99.90;;;;;;4884225;29;20581;-89
2022/09/19 04:11:55;;;;;;;14.80;2.00;;;11.60;99.90;;;;;;4884555;29;20033;-88
2022/09/19 04:14:20;;;;;;;13.80;1.90;;;11.60;99.90;;;;;;4886804;29;20028;-89
2022/09/19 04:16:46;;;;;;;17.15;2.45;;;11.60;99.90;;;;;;4901959;29;20338;-89
2022/09/19 04:19:12;;;;;;;13.20;1.92;;;11.60;99.90;;;;;;4884646;29;20413;-88
2022/09/19 04:21:42;;;;;;;17.70;2.00;;;11.60;99.90;;;;;;4885219;29;20088;-89
2022/09/19 04:24:15;;;;;;;11.50;2.05;;;11.60;99.90;;;;;;4869494;29;20092;-89
2022/09/19 04:26:45;;;;;;;12.85;2.08;;;11.60;99.90;;;;;;4901402;29;20073;-90
2022/09/19 04:29:11;;;;;;;12.90;2.03;;;11.60;99.90;;;;;;4885745;29;20379;-89
2022/09/19 04:31:42;;;;;;;13.82;2.17;;;11.60;99.90;;;;;;4884243;29;20069;-89
2022/09/19 04:34:14;;;;;;;15.32;2.00;;;11.60;99.90;;;;;;4884447;29;20029;-89
2022/09/19 04:36:41;;;;;;;13.52;2.10;;;11.60;99.90;;;;;;4900632;29;20032;-90
2022/09/19 04:39:06;;;;;;;11.10;1.92;;;11.60;99.90;;;;;;4868583;29;20064;-89
2022/09/19 04:41:44;;;;;;;11.10;2.17;;;11.60;99.90;;;;;;4883890;29;20025;-89
2022/09/19 04:44:13;;;;;;;13.00;2.00;;;11.60;99.90;;;;;;4884820;29;20028;-89
2022/09/19 04:46:41;;;;;;;13.60;2.33;;;11.60;99.90;;;;;;4885795;29;20029;-88
2022/09/19 04:49:07;;;;;;;8.63;1.70;;;11.60;99.90;;;;;;4884195;29;20550;-87
2022/09/19 04:51:33;;;;;;;9.40;1.70;;;11.60;99.90;;;;;;4883346;29;20047;-89
2022/09/19 04:54:00;;;;;;;11.23;2.05;;;11.60;99.90;;;;;;4868405;29;20024;-89
2022/09/19 04:56:27;;;;;;;14.55;2.08;;;11.60;99.90;;;;;;4900483;29;20031;-89
2022/09/19 04:58:53;;;;;;;15.13;2.10;;;11.70;99.90;;;;;;4883908;29;20099;-89
2022/09/19 05:01:18;;;;;;;12.55;1.70;;;11.60;99.90;;;;;;4884054;29;20461;-89
2022/09/19 05:03:44;;;;;;;10.23;1.73;;;11.60;99.90;;;;;;4883704;29;20351;-89
2022/09/19 05:06:14;;;;;;;10.65;1.80;;;11.70;99.90;;;;;;4883896;29;20017;-92
2022/09/19 05:08:40;;;;;;;12.15;1.73;;;11.70;99.90;;;;;;4884203;29;20025;-90
2022/09/19 05:11:07;;;;;;;13.00;1.92;;;11.70;99.90;;;;;;4900476;29;20036;-89
2022/09/19 05:13:37;;;;;;;11.02;2.00;;;11.70;99.90;;;;;;4883327;29;20044;-89
2022/09/19 05:16:06;;;;;;;8.32;1.55;;;11.70;99.90;;;;;;4884010;29;20033;-89
2022/09/19 05:18:35;;;;;;;9.40;2.00;;;11.70;99.90;;;;;;4883268;29;20032;-89
2022/09/19 05:21:12;;;;;;;9.75;1.88;;;11.70;99.90;;;;;;4883394;29;20033;-89
2022/09/19 05:23:39;;;;;;;11.65;1.70;;;11.70;99.90;;;;;;4883343;29;20020;-90
2022/09/19 05:26:07;;;;;;;10.23;1.67;;;11.70;99.90;;;;;;4883581;29;20096;-90
2022/09/19 05:28:33;;;;;;;18.40;2.33;;;11.70;99.90;;;;;;4883442;29;20035;-91
2022/09/19 05:31:04;;;;;;;14.57;2.08;;;11.80;99.90;;;;;;4883187;29;20062;-90
2022/09/19 05:33:31;;;;;;;11.95;1.95;;;11.80;99.90;;;;;;4899683;29;20088;-89
2022/09/19 05:36:00;;;;;;;10.18;1.75;;;11.80;99.90;;;;;;4900116;29;20024;-90
2022/09/19 05:38:30;;;;;;;9.57;1.67;;;11.70;99.90;;;;;;4899361;29;20088;-89
2022/09/19 05:40:57;;;;;;;12.20;2.38;;;11.80;99.90;;;;;;4901821;29;20038;-89
2022/09/19 05:43:23;;;;;;;13.13;1.67;;;11.80;99.90;;;;;;4918648;29;20461;-89
2022/09/19 05:45:52;;;;;;;13.13;2.25;;;11.80;99.90;;;;;;4902008;29;20033;-89
2022/09/19 05:48:19;;;;;;;9.45;2.13;;;11.80;99.90;;;;;;4917291;29;20051;-89
2022/09/19 05:50:46;;;;;;;13.20;1.80;;;11.80;99.90;;;;;;4918216;29;20108;-89
2022/09/19 05:55:58;;;;;;;8.95;1.50;;;11.80;99.90;;;;;;4918504;29;20556;-89
2022/09/19 05:58:24;;;;;;;10.23;2.58;;;11.90;99.90;;;;;;4901584;29;20035;-89
2022/09/19 06:00:50;;;;;;;8.63;1.88;;;11.90;99.90;;;;;;4918528;29;20040;-89
2022/09/19 06:03:19;;;;;;;11.20;1.65;;;11.90;99.90;;;;;;4918131;29;20061;-90
2022/09/19 06:05:47;;;;;;;14.30;2.63;;;11.90;99.90;;;;;;4901540;29;20028;-89
2022/09/19 06:08:19;;;;;;;9.20;2.20;;;11.90;99.90;;;;;;4901593;29;20473;-90
2022/09/19 06:10:46;;;;;;;11.52;2.17;;;12.00;99.90;;;;;;4901474;29;20051;-90
2022/09/19 06:13:15;;;;;;;12.38;1.83;;;12.00;99.90;;;;;;4901797;29;20084;-90
2022/09/19 06:15:40;;;;;;;15.82;3.25;;;12.00;99.90;;;;;;4901549;29;20064;-90
2022/09/19 06:18:10;;;;;;;16.05;2.50;;;12.00;99.90;;;;;;4886293;29;20115;-91
2022/09/19 06:20:37;;;;;;;13.98;1.95;;;12.00;99.90;;;;;;4901639;29;20483;-91
2022/09/19 06:23:06;;;;;;;14.00;2.10;;;12.00;99.90;;;;;;4902007;29;20107;-91
2022/09/19 06:25:33;;;;;;;13.15;2.58;;;12.10;99.90;;;;;;4918660;29;20028;-92
2022/09/19 06:28:05;;;;;;;12.48;2.10;;;12.00;99.90;;;;;;4901733;29;20430;-92
2022/09/19 06:30:35;;;;;;;16.30;2.65;;;12.10;99.90;;;;;;4902306;29;20532;-92
2022/09/19 06:33:00;;;;;;;7.35;1.67;;;12.00;99.90;;;;;;4920022;29;20118;-91
2022/09/19 06:35:29;;;;;;;13.90;2.10;;;12.10;99.90;;;;;;4905127;29;20437;-91
2022/09/19 06:38:00;;;;;;;16.40;2.92;;;12.10;99.90;;;;;;4890398;29;20028;-91
2022/09/19 06:40:27;;;;;;;10.45;2.88;;;12.10;99.90;;;;;;4902399;29;20056;-91
2022/09/19 06:43:01;;;;;;;10.13;1.92;;;12.10;99.90;;;;;;4886984;29;20033;-90
2022/09/19 06:45:27;;;;;;;17.73;2.42;;;12.10;99.90;;;;;;4902491;29;20032;-91
2022/09/19 06:48:00;;;;;;;16.00;2.22;;;12.10;99.90;;;;;;4902501;29;20081;-91
2022/09/19 06:50:27;;;;;;;11.40;2.53;;;12.10;99.90;;;;;;4902256;29;20062;-91
2022/09/19 06:52:53;;;;;;;8.95;2.25;;;12.10;99.90;;;;;;4904123;29;20505;-91
2022/09/19 06:55:19;;;;;;;9.38;2.00;;;12.10;99.90;;;;;;4904598;29;20052;-91
2022/09/19 06:58:04;;;;;;;10.13;2.20;;;12.20;99.90;;;;;;4922375;29;20203;-91
2022/09/19 07:00:36;;;;;;;9.23;1.88;;;12.20;99.90;;;;;;4888338;29;20119;-91
2022/09/19 07:03:01;;;;;;;14.93;2.45;;;12.20;99.90;;;;;;4902819;29;20076;-92
2022/09/19 07:05:30;;;;;;;10.00;2.22;;;12.20;99.90;;;;;;4903274;29;20032;-91
2022/09/19 07:07:56;;;;;;;22.83;2.53;;;12.20;99.90;;;;;;4901972;29;20029;-92
2022/09/19 07:10:21;;;;;;;14.52;2.20;;;12.30;99.90;;;;;;4901674;29;20036;-91
2022/09/19 07:12:55;;;;;;;14.05;2.38;;;12.30;99.90;;;;;;4902993;29;20108;-91
2022/09/19 07:15:24;;;;;;;12.30;2.28;;;12.30;99.90;;;;;;4887075;29;20037;-92
2022/09/19 07:17:52;;;;;;;17.77;2.83;;;12.30;99.90;;;;;;4917504;29;20024;-92
2022/09/19 07:20:18;;;;;;;12.05;2.10;;;12.40;99.90;;;;;;4901513;29;20492;-91
2022/09/19 07:22:43;;;;;;;9.70;1.98;;;12.40;99.90;;;;;;4902455;29;20033;-91
2022/09/19 07:25:09;;;;;;;18.45;2.70;;;12.40;99.90;;;;;;4901421;29;20033;-91
2022/09/19 07:27:36;;;;;;;14.93;2.55;;;12.40;99.90;;;;;;4885957;29;20044;-91
2022/09/19 07:30:05;;;;;;;9.90;2.15;;;12.50;99.90;;;;;;4901503;29;20092;-90
2022/09/19 07:32:33;;;;;;;11.18;2.03;;;12.50;99.90;;;;;;4901324;29;20033;-90
2022/09/19 07:35:09;;;;;;;;;;;;;;;;;;;;;
2022/09/19 07:37:35;;;;;;;12.52;2.13;;;12.60;99.90;;;;;;4901991;29;20039;-90
2022/09/19 07:40:01;;;;;;;16.52;2.00;;;12.60;99.90;;;;;;4901249;29;20139;-91
2022/09/19 07:42:27;;;;;;;10.43;1.90;;;12.70;99.90;;;;;;4885766;29;20056;-90
2022/09/19 07:44:55;;;;;;;10.75;2.00;;;12.70;99.90;;;;;;4915526;29;20029;-89
2022/09/19 07:47:29;;;;;;;14.23;2.00;;;12.80;99.90;;;;;;4901467;29;20156;-91
2022/09/19 07:49:56;;;;;;;9.00;1.98;;;12.80;99.90;;;;;;4901287;29;20036;-90
2022/09/19 07:52:24;;;;;;;12.57;2.20;;;12.90;99.90;;;;;;4900618;29;20021;-91
2022/09/19 07:54:53;;;;;;;16.52;2.50;;;13.00;99.90;;;;;;4901998;29;20032;-91
2022/09/19 07:57:18;;;;;;;10.02;1.90;;;13.00;99.90;;;;;;4900873;29;20123;-91
2022/09/19 07:59:45;;;;;;;11.77;2.08;;;13.00;99.90;;;;;;4901612;29;20090;-90
2022/09/19 08:02:11;;;;;;;11.40;2.25;;;13.10;99.90;;;;;;4901332;29;20059;-89
2022/09/19 08:04:37;;;;;;;10.27;1.75;;;13.10;99.90;;;;;;4900914;29;20036;-91
2022/09/19 08:07:04;;;;;;;13.52;2.55;;;13.10;99.90;;;;;;4885246;29;20080;-91
2022/09/19 08:09:33;;;;;;;6.80;1.30;;;13.20;99.90;;;;;;4901019;29;20089;-90
2022/09/19 08:12:06;;;;;;;10.65;1.85;;;13.20;99.90;;;;;;4916442;29;20120;-91
2022/09/19 08:14:32;;;;;;;6.72;1.42;;;13.20;99.90;;;;;;4885110;29;20020;-91
2022/09/19 08:16:58;;;;;;;9.20;2.38;;;13.30;99.90;;;;;;4900399;29;20112;-90
2022/09/19 08:19:24;;;;;;;12.18;1.90;;;13.30;99.90;;;;;;4900634;29;20031;-90
2022/09/19 08:21:50;;;;;;;9.75;2.17;;;13.40;99.90;;;;;;4900490;29;20025;-89
2022/09/19 08:24:17;;;;;;;11.95;1.70;;;13.40;99.90;;;;;;4900071;29;20021;-91
2022/09/19 08:26:46;;;;;;;9.68;2.10;;;13.50;99.90;;;;;;4884640;29;20032;-91
2022/09/19 08:29:12;;;;;;;10.05;1.73;;;13.50;99.90;;;;;;4900424;29;20036;-91
2022/09/19 08:31:38;;;;;;;10.90;1.80;;;13.60;99.90;;;;;;4900182;29;20098;-91
2022/09/19 08:34:04;;;;;;;6.68;1.67;;;13.70;99.90;;;;;;4900205;29;20024;-90
2022/09/19 08:36:30;;;;;;;8.20;1.40;;;13.70;99.90;;;;;;4900229;29;20112;-89
2022/09/19 08:38:58;;;;;;;9.75;2.00;;;13.80;99.90;;;;;;4899897;29;20104;-91
2022/09/19 08:41:29;;;;;;;9.50;1.92;;;13.80;99.90;;;;;;4900201;29;20035;-90
2022/09/19 08:44:01;;;;;;;7.50;1.42;;;13.90;99.90;;;;;;4901286;29;20051;-91
2022/09/19 08:46:55;;;;;;;10.02;1.65;;;13.90;99.90;;;;;;4915866;29;20111;-91
2022/09/19 08:49:29;;;;;;;13.05;1.77;;;14.00;99.90;;;;;;4887477;29;20037;-91
2022/09/19 08:52:29;;;;;;;9.93;1.98;;;14.10;99.90;;;;;;4899712;29;20095;-91
2022/09/19 08:54:57;;;;;;;8.70;2.03;;;14.10;99.90;;;;;;4915416;29;20032;-88
2022/09/19 08:57:37;;;;;;;6.93;1.55;;;14.20;99.90;;;;;;4900963;29;20120;-89
2022/09/19 09:00:14;;;;;;;6.85;1.70;;;14.30;99.90;;;;;;4900890;29;20028;-89
2022/09/19 09:02:51;;;;;;;8.73;1.27;;;14.30;99.90;;;;;;4899587;29;20032;-89
2022/09/19 09:05:38;;;;;;;11.32;1.83;;;14.40;99.90;;;;;;4901018;29;20171;-88
2022/09/19 09:08:13;;;;;;;9.35;1.55;;;14.50;99.90;;;;;;4901010;29;20036;-89
2022/09/19 09:11:18;;;;;;;7.40;1.73;;;14.50;99.90;;;;;;4915484;29;20080;-88
2022/09/19 09:14:06;;;;;;;9.65;1.77;;;14.60;99.90;;;;;;4851290;29;20041;-89
2022/09/19 09:16:42;;;;;;;7.68;1.50;;;14.70;99.90;;;;;;4901021;29;20025;-88
2022/09/19 09:19:10;;;;;;;7.57;1.60;;;14.70;99.90;;;;;;4899862;29;20111;-89
2022/09/19 09:21:49;;;;;;;7.95;1.83;;;14.80;99.90;;;;;;4916194;29;20124;-89
2022/09/19 09:24:41;;;;;;;9.80;2.05;;;14.90;99.90;;;;;;4900210;29;20141;-89
2022/09/19 09:27:23;;;;;;;7.90;1.67;;;14.90;99.90;;;;;;4909304;29;20025;-89
2022/09/19 09:29:53;;;;;;;7.80;1.42;;;15.00;99.90;;;;;;4916724;29;20037;-88
2022/09/19 09:32:35;;;;;;;4.60;1.20;;;15.00;99.90;;;;;;4924278;29;20036;-89
2022/09/19 09:35:04;;;;;;;5.80;1.33;;;15.00;99.90;;;;;;4903390;29;20024;-89
2022/09/19 09:37:56;;;;;;;6.97;1.50;;;15.10;99.90;;;;;;4916099;29;20036;-90
2022/09/19 09:43:50;;;;;;;5.43;1.20;;;15.20;99.90;;;;;;4915335;29;20400;-90
2022/09/19 09:46:25;;;;;;;5.85;1.25;;;15.20;99.90;;;;;;4902224;29;20028;-88
2022/09/19 09:48:54;;;;;;;13.65;1.75;;;15.30;99.90;;;;;;4902066;29;20035;-89
2022/09/19 09:51:39;;;;;;;8.13;1.35;;;15.30;99.90;;;;;;4887003;29;20036;-89
2022/09/19 09:57:24;;;;;;;3.33;1.10;;;15.40;99.90;;;;;;4918780;29;20087;-90
2022/09/19 10:03:39;;;;;;;7.10;1.42;;;15.60;99.90;;;;;;4919407;29;20059;-90
2022/09/19 10:06:29;;;;;;;6.47;1.25;;;15.60;99.90;;;;;;4902096;29;20115;-90
2022/09/19 10:09:11;;;;;;;7.72;1.23;;;15.80;99.90;;;;;;4901226;29;20032;-90
2022/09/19 10:11:39;;;;;;;9.18;1.17;;;15.80;99.90;;;;;;4903289;29;20051;-90
2022/09/19 10:14:08;;;;;;;5.25;0.98;;;15.90;99.90;;;;;;4907355;29;20394;-91
2022/09/19 10:16:36;;;;;;;6.57;1.20;;;15.90;99.90;;;;;;4908332;29;20032;-90
2022/09/19 10:19:27;;;;;;;6.35;1.40;;;16.00;99.90;;;;;;4904957;29;20042;-90
2022/09/19 10:21:53;;;;;;;;;;;16.10;99.90;;;;;;4902351;29;20103;-90
2022/09/19 10:24:51;;;;;;;5.20;1.00;;;16.10;99.90;;;;;;4917696;29;20276;-91
2022/09/19 10:27:45;;;;;;;4.30;0.73;;;16.10;99.90;;;;;;4918793;29;20020;-91
2022/09/19 10:30:25;;;;;;;2.35;0.93;;;16.10;99.90;;;;;;4895990;29;20040;-90
2022/09/19 10:32:56;;;;;;;4.90;0.90;;;16.10;99.90;;;;;;4918314;29;20540;-91
2022/09/19 10:35:30;;;;;;;;;;;16.20;99.90;;;;;;4901953;29;20079;-91
2022/09/19 10:38:14;;;;;;;6.00;1.13;;;16.20;99.90;;;;;;4918633;29;19907;-91
2022/09/19 10:41:02;;;;;;;8.32;2.08;;;16.30;99.90;;;;;;4898481;29;20104;-91
2022/09/19 10:43:36;;;;;;;5.82;1.15;;;16.40;99.90;;;;;;4899482;29;20025;-91
2022/09/19 10:46:06;;;;;;;6.38;1.20;;;16.40;99.90;;;;;;4898467;29;20032;-91
2022/09/19 10:48:34;;;;;;;6.22;1.80;;;16.40;99.90;;;;;;4898545;29;20466;-89
2022/09/19 10:51:09;;;;;;;4.25;1.13;;;16.40;99.90;;;;;;4898531;29;20525;-89
2022/09/19 10:53:38;;;;;;;5.60;1.33;;;16.50;99.90;;;;;;4899531;29;20041;-90
2022/09/19 10:56:22;;;;;;;5.95;1.00;;;16.50;99.90;;;;;;4899178;29;20025;-90
2022/09/19 10:59:01;;;;;;;4.85;0.90;;;16.50;99.90;;;;;;4898327;29;20080;-91
2022/09/19 11:01:27;;;;;;;5.88;0.88;;;16.50;99.90;;;;;;4914069;29;20032;-92
2022/09/19 11:04:06;;;;;;;4.63;1.02;;;16.50;99.90;;;;;;4898374;29;20035;-91
2022/09/19 11:06:33;;;;;;;2.97;1.00;;;16.50;99.90;;;;;;4899316;29;20525;-90
2022/09/19 11:09:00;;;;;;;4.20;0.95;;;16.50;99.90;;;;;;4899142;29;20168;-90
2022/09/19 11:11:26;;;;;;;5.13;1.15;;;16.50;99.90;;;;;;4898128;29;20398;-91
2022/09/19 11:14:15;;;;;;;3.42;0.85;;;16.50;99.90;;;;;;4913860;29;20033;-91
2022/09/19 11:17:04;;;;;;;4.97;1.20;;;16.50;99.90;;;;;;4914067;29;20032;-90
2022/09/19 11:19:35;;;;;;;2.85;0.90;;;16.60;99.90;;;;;;4872911;29;20048;-90
2022/09/19 11:22:04;;;;;;;6.15;0.90;;;16.60;99.90;;;;;;4903319;29;20024;-89
2022/09/19 11:24:29;;;;;;;4.28;0.88;;;16.60;99.90;;;;;;4902502;29;20028;-91
2022/09/19 11:27:13;;;;;;;4.93;1.10;;;16.60;99.90;;;;;;4902803;29;20059;-91
2022/09/19 11:29:57;;;;;;;2.92;0.80;;;16.60;99.90;;;;;;4917474;29;20039;-91
2022/09/19 11:32:49;;;;;;;3.40;0.93;;;16.50;99.90;;;;;;4903942;29;20048;-89
2022/09/19 11:35:28;;;;;;;4.72;1.50;;;16.50;99.90;;;;;;4884202;29;20037;-90
2022/09/19 11:38:21;;;;;;;4.28;1.13;;;16.50;99.90;;;;;;4902849;29;20024;-91
2022/09/19 11:41:11;;;;;;;5.65;1.23;;;16.60;99.90;;;;;;4885731;29;20053;-90
2022/09/19 11:43:59;;;;;;;4.15;0.90;;;16.70;99.90;;;;;;4886115;29;20036;-91
2022/09/19 11:46:49;;;;;;;5.72;1.50;;;16.70;99.90;;;;;;4903122;29;20078;-90
2022/09/19 11:49:46;;;;;;;6.13;1.15;;;16.80;99.90;;;;;;4901215;29;20063;-91
2022/09/19 11:52:31;;;;;;;5.75;1.40;;;16.90;99.90;;;;;;4901738;29;20037;-90
2022/09/19 11:55:09;;;;;;;3.25;0.90;;;17.00;99.90;;;;;;4902892;29;20028;-91
2022/09/19 11:57:53;;;;;;;4.10;0.98;;;17.20;99.90;;;;;;4901302;29;20073;-91
2022/09/19 12:00:23;;;;;;;6.40;1.83;;;17.30;99.90;;;;;;4902245;29;20041;-91
2022/09/19 12:03:10;;;;;;;3.45;1.02;;;17.30;99.90;;;;;;4885819;29;20073;-92
2022/09/19 12:05:46;;;;;;;2.92;0.90;;;17.50;99.90;;;;;;4901792;29;20034;-90
2022/09/19 12:08:36;;;;;;;4.88;1.50;;;17.50;99.90;;;;;;4901810;29;20035;-90
2022/09/19 12:11:08;;;;;;;5.72;1.15;;;17.60;99.90;;;;;;4902808;29;20073;-92
2022/09/19 12:13:46;;;;;;;4.57;0.95;;;17.70;99.90;;;;;;4886436;29;20035;-91
2022/09/19 12:16:31;;;;;;;2.38;0.90;;;17.80;99.90;;;;;;4886847;29;20474;-91
2022/09/19 12:19:05;;;;;;;6.93;0.90;;;17.80;99.90;;;;;;4902547;29;20033;-91
2022/09/19 12:21:53;;;;;;;2.45;0.95;;;17.90;99.90;;;;;;4887478;29;20405;-91
2022/09/19 12:27:25;;;;;;;2.85;0.82;;;18.00;99.90;;;;;;4904746;29;20504;-91
2022/09/19 12:30:13;;;;;;;3.70;0.82;;;18.00;99.90;;;;;;4886303;29;20047;-92
2022/09/19 12:32:43;;;;;;;3.78;0.82;;;18.00;99.90;;;;;;4886762;29;20055;-91
2022/09/19 12:35:38;;;;;;;6.22;1.13;;;18.00;99.90;;;;;;4902902;29;20035;-91
2022/09/19 12:38:46;;;;;;;5.28;0.90;;;18.00;99.90;;;;;;4901491;29;20072;-90
2022/09/19 12:41:46;;;;;;;3.90;0.80;;;18.00;99.90;;;;;;4888335;29;20056;-91
2022/09/19 12:44:39;;;;;;;5.85;1.08;;;18.00;99.90;;;;;;4887181;29;20068;-91
2022/09/19 12:47:07;;;;;;;3.95;0.60;;;18.00;99.90;;;;;;4886438;29;20025;-90
2022/09/19 12:49:54;;;;;;;5.18;1.30;;;17.90;99.90;;;;;;4903185;29;20052;-92
2022/09/19 12:52:44;;;;;;;4.88;1.02;;;17.90;99.90;;;;;;4904038;29;20027;-92
2022/09/19 12:55:16;;;;;;;3.90;0.82;;;17.90;99.90;;;;;;4894418;29;20031;-90
2022/09/19 12:57:50;;;;;;;3.90;1.10;;;18.00;99.90;;;;;;4915615;29;20028;-91
2022/09/19 13:00:18;;;;;;;4.18;1.00;;;18.00;99.90;;;;;;4920406;29;20044;-90
2022/09/19 13:02:51;;;;;;;5.70;0.85;;;18.00;99.90;;;;;;4904303;29;20076;-90
2022/09/19 13:05:52;;;;;;;5.07;0.90;;;18.00;99.90;;;;;;4903669;29;20112;-89
2022/09/19 13:08:34;;;;;;;4.15;1.50;;;18.00;99.90;;;;;;4903955;29;20024;-91
2022/09/19 13:11:24;;;;;;;5.70;1.38;;;18.00;99.90;;;;;;4905779;29;20013;-91
2022/09/19 13:14:08;;;;;;;6.75;1.65;;;18.00;99.90;;;;;;4919710;29;20048;-91
2022/09/19 13:23:29;;;;;;;5.05;1.02;;;18.10;99.90;;;;;;4903635;29;20093;-91
2022/09/19 13:24:44;;;;;;;3.97;1.08;;;18.30;99.90;;;;;;4919922;29;20029;-90
2022/09/19 13:27:11;;;;;;;4.07;1.13;;;18.40;99.70;;;;;;4916012;29;20032;-91
2022/09/19 13:29:40;;;;;;;5.10;1.20;;;18.40;99.40;;;;;;4887649;29;20104;-91
2022/09/19 13:32:46;;;;;;;4.32;1.00;;;18.40;99.70;;;;;;4919042;29;20405;-89
2022/09/19 13:35:20;;;;;;;2.58;0.65;;;18.50;99.70;;;;;;4905345;29;20028;-90
2022/09/19 13:37:57;;;;;;;4.82;1.08;;;18.50;99.20;;;;;;4889397;29;20032;-89
2022/09/19 13:40:32;;;;;;;3.70;1.02;;;18.50;99.00;;;;;;4920631;29;20058;-89
2022/09/19 13:43:10;;;;;;;6.20;1.05;;;18.50;98.90;;;;;;4941939;29;20043;-91
2022/09/19 13:45:45;;;;;;;5.85;0.93;;;18.40;98.80;;;;;;4925576;29;20035;-88